createdAt,value
2023-05-01T00:00:51.899Z,24.91
2023-05-01T00:01:51.895Z,24.89
2023-05-01T00:02:51.868Z,24.93
2023-05-01T00:03:52.019Z,24.85
2023-05-01T00:04:51.953Z,24.95
2023-05-01T00:05:51.769Z,24.92
2023-05-01T00:06:51.893Z,24.77
2023-05-01T00:07:51.821Z,24.72
2023-05-01T00:08:51.741Z,24.74
2023-05-01T00:09:51.724Z,24.73
2023-05-01T00:10:51.698Z,24.83
2023-05-01T00:11:51.712Z,24.76
2023-05-01T00:12:51.682Z,24.83
2023-05-01T00:13:51.668Z,24.69
2023-05-01T00:14:51.653Z,24.79
2023-05-01T00:15:51.752Z,24.82
2023-05-01T00:16:51.648Z,24.76
2023-05-01T00:17:51.652Z,24.93
2023-05-01T00:18:51.613Z,24.88
2023-05-01T00:19:51.618Z,24.77
2023-05-01T00:20:51.701Z,24.79
2023-05-01T00:21:51.587Z,24.88
2023-05-01T00:22:51.539Z,24.92
2023-05-01T00:23:51.510Z,24.89
2023-05-01T00:24:51.494Z,24.92
2023-05-01T00:25:51.472Z,25.08
2023-05-01T00:26:51.491Z,25.01
2023-05-01T00:27:51.475Z,25.08
2023-05-01T00:28:51.494Z,25.16
2023-05-01T00:29:51.470Z,25.07
2023-05-01T00:30:51.483Z,25.16
2023-05-01T00:31:51.462Z,25.24
2023-05-01T00:32:51.536Z,25.30
2023-05-01T00:33:51.409Z,25.40
2023-05-01T00:34:51.617Z,25.28
2023-05-01T00:35:51.351Z,25.33
2023-05-01T00:36:51.359Z,25.42
2023-05-01T00:37:51.326Z,25.54
2023-05-01T00:38:51.309Z,25.50
2023-05-01T00:39:51.313Z,25.56
2023-05-01T00:40:51.276Z,25.53
2023-05-01T00:41:51.286Z,25.50
2023-05-01T00:42:51.340Z,25.57
2023-05-01T00:43:51.270Z,25.68
2023-05-01T00:44:51.268Z,25.80
2023-05-01T00:45:51.432Z,25.91
2023-05-01T00:46:51.252Z,25.67
2023-05-01T00:47:51.214Z,25.84
2023-05-01T00:48:51.188Z,25.72
2023-05-01T00:49:51.189Z,25.78
2023-05-01T00:50:51.148Z,25.84
2023-05-01T00:51:51.148Z,25.83
2023-05-01T00:52:51.165Z,25.92
2023-05-01T00:53:51.115Z,25.83
2023-05-01T00:54:51.171Z,25.87
2023-05-01T00:55:51.107Z,25.87
2023-05-01T00:56:51.118Z,25.72
2023-05-01T00:57:51.103Z,25.84
2023-05-01T00:58:51.049Z,25.83
2023-05-01T00:59:51.055Z,25.76
2023-05-01T01:00:51.121Z,25.80
2023-05-01T01:01:51.023Z,25.94
2023-05-01T01:02:51.091Z,25.91
2023-05-01T01:03:51.115Z,25.84
2023-05-01T01:04:51.021Z,25.86
2023-05-01T01:05:50.961Z,26.07
2023-05-01T01:06:51.000Z,25.86
2023-05-01T01:07:51.010Z,25.89
2023-05-01T01:08:50.942Z,25.95
2023-05-01T01:09:50.941Z,25.97
2023-05-01T01:10:50.919Z,25.84
2023-05-01T01:11:50.947Z,25.78
2023-05-01T01:12:50.868Z,25.75
2023-05-01T01:13:50.943Z,25.87
2023-05-01T01:14:50.858Z,25.89
2023-05-01T01:15:50.869Z,25.94
2023-05-01T01:16:50.982Z,25.89
2023-05-01T01:17:50.884Z,25.87
2023-05-01T01:18:50.799Z,25.99
2023-05-01T01:19:50.759Z,26.02
2023-05-01T01:20:50.768Z,26.10
2023-05-01T01:21:50.781Z,25.95
2023-05-01T01:22:50.798Z,25.99
2023-05-01T01:23:50.727Z,25.94
2023-05-01T01:24:50.752Z,25.97
2023-05-01T01:25:50.688Z,26.08
2023-05-01T01:26:50.667Z,25.99
2023-05-01T01:27:50.644Z,26.08
2023-05-01T01:28:50.727Z,26.05
2023-05-01T01:29:50.632Z,25.94
2023-05-01T01:30:50.682Z,25.95
2023-05-01T01:31:50.619Z,26.05
2023-05-01T01:32:50.657Z,26.26
2023-05-01T01:33:50.584Z,26.21
2023-05-01T01:34:50.612Z,26.26
2023-05-01T01:35:50.571Z,26.50
2023-05-01T01:36:50.610Z,26.56
2023-05-01T01:37:50.619Z,26.73
2023-05-01T01:38:50.513Z,26.55
2023-05-01T01:39:50.528Z,26.63
2023-05-01T01:40:50.559Z,26.56
2023-05-01T01:41:50.492Z,26.61
2023-05-01T01:42:50.476Z,26.58
2023-05-01T01:43:50.452Z,26.55
2023-05-01T01:44:50.437Z,26.51
2023-05-01T01:45:50.431Z,26.40
2023-05-01T01:46:50.482Z,26.51
2023-05-01T01:47:50.485Z,26.45
2023-05-01T01:48:50.405Z,26.50
2023-05-01T01:49:50.388Z,26.46
2023-05-01T01:50:50.368Z,26.56
2023-05-01T01:51:50.368Z,26.77
2023-05-01T01:52:50.347Z,26.77
2023-05-01T01:53:50.344Z,26.80
2023-05-01T01:54:50.359Z,26.92
2023-05-01T01:55:50.347Z,27.02
2023-05-01T01:56:50.368Z,27.02
2023-05-01T01:57:50.256Z,27.20
2023-05-01T01:58:50.262Z,27.20
2023-05-01T01:59:50.261Z,27.15
2023-05-01T02:00:50.234Z,27.17
2023-05-01T02:01:50.285Z,27.15
2023-05-01T02:02:50.264Z,27.22
2023-05-01T02:03:50.236Z,27.17
2023-05-01T02:04:50.174Z,27.33
2023-05-01T02:05:50.154Z,27.38
2023-05-01T02:06:50.364Z,27.50
2023-05-01T02:07:50.130Z,27.36
2023-05-01T02:08:50.143Z,27.56
2023-05-01T02:09:50.098Z,27.61
2023-05-01T02:10:50.114Z,27.72
2023-05-01T02:11:50.149Z,27.80
2023-05-01T02:12:50.139Z,27.98
2023-05-01T02:13:50.108Z,28.13
2023-05-01T02:14:50.155Z,28.36
2023-05-01T02:15:50.070Z,28.50
2023-05-01T02:16:50.025Z,28.73
2023-05-01T02:17:50.070Z,28.75
2023-05-01T02:18:49.980Z,29.05
2023-05-01T02:19:50.008Z,29.09
2023-05-01T02:20:49.981Z,29.31
2023-05-01T02:21:49.996Z,29.52
2023-05-01T02:22:50.004Z,29.69
2023-05-01T02:23:49.969Z,29.88
2023-05-01T02:24:49.923Z,30.03
2023-05-01T02:25:49.920Z,30.18
2023-05-01T02:26:49.969Z,30.37
2023-05-01T02:27:49.864Z,30.62
2023-05-01T02:28:49.908Z,30.66
2023-05-01T02:29:49.847Z,30.49
2023-05-01T02:30:49.861Z,30.60
2023-05-01T02:31:49.854Z,30.62
2023-05-01T02:32:49.870Z,30.66
2023-05-01T02:33:49.854Z,30.91
2023-05-01T02:34:49.813Z,30.80
2023-05-01T02:35:49.776Z,30.93
2023-05-01T02:36:49.792Z,31.07
2023-05-01T02:37:49.758Z,31.05
2023-05-01T02:38:49.774Z,31.23
2023-05-01T02:39:49.724Z,31.30
2023-05-01T02:40:49.723Z,31.19
2023-05-01T02:41:49.690Z,31.28
2023-05-01T02:42:49.716Z,31.42
2023-05-01T02:43:49.682Z,31.40
2023-05-01T02:44:49.741Z,31.52
2023-05-01T02:45:49.755Z,31.33
2023-05-01T02:46:49.696Z,31.49
2023-05-01T02:47:49.696Z,31.64
2023-05-01T02:48:49.634Z,31.75
2023-05-01T02:49:49.655Z,31.68
2023-05-01T02:50:49.612Z,31.78
2023-05-01T02:51:49.588Z,31.73
2023-05-01T02:52:49.554Z,32.00
2023-05-01T02:53:49.565Z,31.92
2023-05-01T02:54:49.546Z,32.12
2023-05-01T02:55:49.525Z,32.10
2023-05-01T02:56:49.489Z,32.24
2023-05-01T02:57:49.543Z,32.52
2023-05-01T02:58:49.478Z,32.62
2023-05-01T02:59:49.519Z,32.57
2023-05-01T03:00:49.639Z,32.67
2023-05-01T03:01:49.501Z,32.77
2023-05-01T03:02:49.450Z,32.98
2023-05-01T03:03:49.451Z,33.13
2023-05-01T03:04:49.404Z,33.29
2023-05-01T03:05:49.407Z,33.13
2023-05-01T03:06:49.469Z,33.16
2023-05-01T03:07:49.367Z,33.35
2023-05-01T03:08:49.352Z,33.64
2023-05-01T03:09:49.341Z,33.45
2023-05-01T03:10:49.361Z,33.86
2023-05-01T03:11:49.295Z,33.86
2023-05-01T03:12:49.306Z,33.91
2023-05-01T03:13:49.310Z,33.75
2023-05-01T03:14:49.264Z,33.99
2023-05-01T03:15:49.267Z,33.72
2023-05-01T03:16:49.260Z,33.91
2023-05-01T03:17:49.227Z,33.75
2023-05-01T03:18:49.236Z,33.61
2023-05-01T03:19:49.225Z,33.64
2023-05-01T03:20:49.231Z,33.35
2023-05-01T03:21:49.193Z,33.53
2023-05-01T03:22:49.258Z,33.75
2023-05-01T03:23:49.189Z,33.56
2023-05-01T03:24:49.173Z,33.78
2023-05-01T03:25:49.190Z,33.97
2023-05-01T03:26:49.193Z,34.13
2023-05-01T03:27:49.075Z,34.41
2023-05-01T03:28:49.121Z,34.73
2023-05-01T03:29:49.112Z,35.08
2023-05-01T03:30:49.084Z,35.31
2023-05-01T03:31:49.108Z,35.76
2023-05-01T03:32:49.185Z,36.29
2023-05-01T03:33:49.023Z,36.51
2023-05-01T03:34:49.019Z,36.80
2023-05-01T03:35:49.195Z,37.03
2023-05-01T03:36:48.988Z,37.16
2023-05-01T03:37:48.987Z,37.59
2023-05-01T03:38:48.989Z,37.33
2023-05-01T03:39:48.975Z,37.42
2023-05-01T03:40:48.953Z,37.16
2023-05-01T03:41:48.969Z,37.16
2023-05-01T03:42:48.913Z,37.06
2023-05-01T03:43:49.079Z,36.90
2023-05-01T03:44:48.979Z,36.74
2023-05-01T03:45:49.043Z,36.64
2023-05-01T03:46:48.837Z,36.39
2023-05-01T03:47:48.882Z,36.35
2023-05-01T03:48:48.906Z,36.13
2023-05-01T03:49:48.840Z,35.89
2023-05-01T03:50:48.825Z,35.70
2023-05-01T03:51:48.793Z,35.64
2023-05-01T03:52:48.826Z,35.43
2023-05-01T03:53:48.742Z,35.67
2023-05-01T03:54:48.765Z,35.37
2023-05-01T03:55:48.726Z,35.40
2023-05-01T03:56:48.751Z,35.67
2023-05-01T03:57:48.728Z,35.46
2023-05-01T03:58:48.693Z,35.61
2023-05-01T03:59:48.676Z,35.83
2023-05-01T04:00:48.703Z,35.95
2023-05-01T04:01:48.679Z,36.13
2023-05-01T04:02:48.919Z,36.29
2023-05-01T04:03:48.748Z,36.29
2023-05-01T04:04:48.626Z,36.42
2023-05-01T04:05:48.581Z,36.64
2023-05-01T04:06:48.701Z,36.54
2023-05-01T04:07:48.545Z,36.74
2023-05-01T04:08:48.553Z,36.77
2023-05-01T04:09:48.589Z,36.96
2023-05-01T04:10:48.526Z,36.80
2023-05-01T04:11:48.514Z,36.83
2023-05-01T04:12:48.531Z,36.83
2023-05-01T04:13:48.538Z,36.77
2023-05-01T04:14:48.490Z,36.77
2023-05-01T04:15:48.503Z,36.83
2023-05-01T04:16:48.456Z,37.00
2023-05-01T04:17:48.478Z,36.80
2023-05-01T04:18:48.427Z,36.77
2023-05-01T04:19:48.445Z,36.77
2023-05-01T04:20:48.416Z,36.77
2023-05-01T04:21:48.389Z,36.83
2023-05-01T04:22:48.384Z,36.96
2023-05-01T04:23:48.353Z,37.23
2023-05-01T04:24:48.336Z,37.26
2023-05-01T04:25:48.390Z,37.26
2023-05-01T04:26:48.334Z,37.56
2023-05-01T04:27:48.349Z,37.83
2023-05-01T04:28:48.288Z,38.00
2023-05-01T04:29:48.314Z,38.31
2023-05-01T04:30:48.434Z,38.81
2023-05-01T04:31:48.445Z,39.47
2023-05-01T04:32:48.329Z,40.19
2023-05-01T04:33:48.316Z,41.26
2023-05-01T04:34:48.273Z,42.08
2023-05-01T04:35:48.295Z,43.17
2023-05-01T04:36:48.321Z,44.36
2023-05-01T04:37:48.296Z,45.46
2023-05-01T04:38:48.222Z,47.15
2023-05-01T04:39:48.276Z,49.17
2023-05-01T04:40:48.271Z,51.24
2023-05-01T04:41:48.237Z,53.23
2023-05-01T04:42:48.266Z,55.78
2023-05-01T04:43:48.265Z,58.19
2023-05-01T04:44:48.231Z,60.68
2023-05-01T04:45:48.278Z,63.05
2023-05-01T04:46:48.233Z,65.67
2023-05-01T04:47:48.293Z,68.52
2023-05-01T04:48:48.243Z,71.02
2023-05-01T04:49:48.127Z,74.10
2023-05-01T04:50:48.224Z,77.74
2023-05-01T04:51:48.198Z,80.74
2023-05-01T04:52:48.090Z,83.81
2023-05-01T04:53:48.302Z,86.67
2023-05-01T04:54:48.092Z,90.12
2023-05-01T04:55:48.260Z,93.03
2023-05-01T04:56:48.242Z,94.21
2023-05-01T04:57:48.132Z,98.01
2023-05-01T04:58:48.172Z,102.45
2023-05-01T04:59:48.018Z,106.42
2023-05-01T05:00:48.078Z,110.78
2023-05-01T05:01:48.246Z,115.04
2023-05-01T05:02:48.161Z,123.53
2023-05-01T05:03:50.078Z,128.06
2023-05-01T05:04:47.985Z,133.57
2023-05-01T05:05:47.956Z,141.11
2023-05-01T05:06:48.031Z,149.29
2023-05-01T05:07:48.128Z,153.95
2023-05-01T05:08:47.833Z,159.52
2023-05-01T05:09:47.932Z,164.05
2023-05-01T05:10:48.004Z,167.33
2023-05-01T05:11:47.760Z,173.57
2023-05-01T05:12:47.790Z,178.76
2023-05-01T05:13:47.772Z,184.96
2023-05-01T05:14:47.764Z,191.19
2023-05-01T05:15:47.857Z,199.65
2023-05-01T05:16:47.900Z,206.93
2023-05-01T05:17:47.801Z,216.16
2023-05-01T05:18:47.657Z,225.95
2023-05-01T05:19:47.769Z,234.98
2023-05-01T05:20:47.620Z,240.47
2023-05-01T05:21:47.580Z,249.58
2023-05-01T05:22:47.566Z,258.59
2023-05-01T05:23:47.559Z,262.72
2023-05-01T05:24:47.556Z,274.32
2023-05-01T05:25:47.535Z,285.00
2023-05-01T05:26:47.504Z,291.30
2023-05-01T05:27:47.552Z,298.70
2023-05-01T05:28:47.477Z,303.38
2023-05-01T05:29:47.602Z,312.89
2023-05-01T05:30:47.477Z,320.19
2023-05-01T05:31:47.495Z,327.84
2023-05-01T05:32:47.463Z,331.47
2023-05-01T05:33:47.488Z,333.14
2023-05-01T05:34:47.436Z,340.37
2023-05-01T05:35:47.421Z,350.89
2023-05-01T05:36:47.398Z,356.20
2023-05-01T05:37:47.387Z,361.68
2023-05-01T05:38:47.362Z,368.15
2023-05-01T05:39:47.346Z,383.57
2023-05-01T05:40:47.342Z,395.35
2023-05-01T05:41:47.355Z,401.52
2023-05-01T05:42:47.322Z,405.90
2023-05-01T05:43:47.317Z,409.13
2023-05-01T05:44:47.331Z,417.29
2023-05-01T05:45:47.441Z,420.17
2023-05-01T05:46:47.303Z,432.94
2023-05-01T05:47:47.286Z,435.48
2023-05-01T05:48:47.305Z,440.35
2023-05-01T05:49:47.288Z,450.73
2023-05-01T05:50:47.247Z,456.26
2023-05-01T05:51:47.246Z,468.39
2023-05-01T05:52:47.170Z,474.37
2023-05-01T05:53:47.163Z,478.43
2023-05-01T05:54:48.167Z,494.33
2023-05-01T05:55:47.207Z,504.77
2023-05-01T05:56:47.151Z,518.06
2023-05-01T05:57:47.132Z,532.91
2023-05-01T05:58:47.109Z,542.41
2023-05-01T05:59:47.095Z,550.89
2023-05-01T06:00:47.089Z,554.08
2023-05-01T06:01:47.096Z,569.16
2023-05-01T06:02:47.220Z,584.06
2023-05-01T06:03:47.133Z,598.68
2023-05-01T06:04:47.003Z,606.28
2023-05-01T06:05:47.015Z,629.07
2023-05-01T06:06:47.018Z,632.64
2023-05-01T06:07:46.982Z,631.44
2023-05-01T06:08:46.995Z,633.84
2023-05-01T06:09:46.979Z,633.84
2023-05-01T06:10:46.939Z,650.47
2023-05-01T06:11:46.923Z,660.09
2023-05-01T06:12:55.708Z,665.34
2023-05-01T06:13:46.959Z,676.78
2023-05-01T06:14:46.928Z,685.09
2023-05-01T06:15:46.950Z,692.17
2023-05-01T06:16:46.854Z,700.87
2023-05-01T06:17:46.877Z,701.60
2023-05-01T06:18:46.937Z,709.04
2023-05-01T06:19:46.848Z,725.17
2023-05-01T06:20:46.861Z,729.91
2023-05-01T06:21:46.845Z,747.35
2023-05-01T06:22:46.821Z,758.78
2023-05-01T06:23:46.767Z,776.81
2023-05-01T06:24:46.766Z,785.00
2023-05-01T06:25:46.758Z,801.43
2023-05-01T06:26:46.742Z,813.60
2023-05-01T06:27:46.729Z,823.60
2023-05-01T06:28:46.699Z,824.11
2023-05-01T06:29:46.723Z,839.60
2023-05-01T06:30:46.710Z,852.42
2023-05-01T06:31:46.754Z,854.05
2023-05-01T06:32:46.765Z,856.23
2023-05-01T06:33:46.670Z,858.97
2023-05-01T06:34:46.650Z,866.75
2023-05-01T06:35:46.670Z,868.44
2023-05-01T06:36:46.600Z,879.27
2023-05-01T06:37:46.591Z,888.01
2023-05-01T06:38:46.584Z,902.36
2023-05-01T06:39:46.590Z,909.71
2023-05-01T06:40:46.558Z,907.86
2023-05-01T06:41:46.629Z,923.50
2023-05-01T06:42:46.512Z,933.80
2023-05-01T06:43:46.504Z,924.78
2023-05-01T06:44:46.479Z,933.80
2023-05-01T06:45:46.494Z,963.34
2023-05-01T06:46:46.520Z,970.31
2023-05-01T06:47:46.469Z,980.97
2023-05-01T06:48:46.459Z,983.85
2023-05-01T06:49:46.410Z,994.07
2023-05-01T06:50:46.407Z,1006.76
2023-05-01T06:51:46.424Z,1034.75
2023-05-01T06:52:46.375Z,1037.15
2023-05-01T06:53:46.387Z,1053.46
2023-05-01T06:54:46.349Z,1057.62
2023-05-01T06:55:46.353Z,1071.14
2023-05-01T06:56:46.378Z,1092.09
2023-05-01T06:57:46.358Z,1095.67
2023-05-01T06:58:46.307Z,1106.52
2023-05-01T06:59:46.300Z,1120.40
2023-05-01T07:00:46.325Z,1140.43
2023-05-01T07:01:46.324Z,1152.19
2023-05-01T07:02:46.539Z,1150.21
2023-05-01T07:03:46.261Z,1146.28
2023-05-01T07:04:46.231Z,1148.24
2023-05-01T07:05:46.231Z,1160.17
2023-05-01T07:06:46.299Z,1165.22
2023-05-01T07:07:58.071Z,1168.27
2023-05-01T07:08:46.188Z,1165.22
2023-05-01T07:09:46.253Z,1187.94
2023-05-01T07:10:46.140Z,1190.05
2023-05-01T07:11:46.135Z,1195.36
2023-05-01T07:12:46.124Z,1220.40
2023-05-01T07:13:46.128Z,1219.29
2023-05-01T07:14:46.114Z,1225.98
2023-05-01T07:15:46.100Z,1232.75
2023-05-01T07:16:46.078Z,1248.83
2023-05-01T07:17:46.121Z,1248.83
2023-05-01T07:18:46.023Z,1266.54
2023-05-01T07:19:46.040Z,1272.55
2023-05-01T07:20:46.031Z,1299.71
2023-05-01T07:21:46.030Z,1297.19
2023-05-01T07:22:45.999Z,1295.94
2023-05-01T07:23:46.021Z,1292.19
2023-05-01T07:24:46.052Z,1304.77
2023-05-01T07:25:45.971Z,1317.60
2023-05-01T07:26:45.964Z,1324.11
2023-05-01T07:27:45.935Z,1348.09
2023-05-01T07:28:46.026Z,1370.14
2023-05-01T07:29:45.996Z,1380.02
2023-05-01T07:30:46.084Z,1382.87
2023-05-01T07:31:45.896Z,1407.56
2023-05-01T07:32:45.868Z,1424.02
2023-05-01T07:33:45.893Z,1442.41
2023-05-01T07:34:46.323Z,1466.08
2023-05-01T07:35:45.891Z,1464.48
2023-05-01T07:36:45.868Z,1479.03
2023-05-01T07:37:45.821Z,1498.88
2023-05-01T07:38:45.786Z,1498.88
2023-05-01T07:39:45.830Z,1501.40
2023-05-01T07:40:45.887Z,1514.12
2023-05-01T07:41:45.810Z,1520.14
2023-05-01T07:42:45.818Z,1525.33
2023-05-01T07:43:45.684Z,1527.94
2023-05-01T07:44:45.692Z,1553.62
2023-05-01T07:45:45.975Z,1550.93
2023-05-01T07:46:52.266Z,1557.23
2023-05-01T07:47:45.860Z,1567.25
2023-05-01T07:48:45.647Z,1573.69
2023-05-01T07:49:45.719Z,1577.40
2023-05-01T07:50:46.033Z,1585.80
2023-05-01T07:51:45.623Z,1596.19
2023-05-01T07:52:45.619Z,1606.71
2023-05-01T07:53:45.568Z,1612.52
2023-05-01T07:54:47.368Z,1646.19
2023-05-01T07:55:46.017Z,1656.36
2023-05-01T07:56:46.356Z,1661.50
2023-05-01T07:57:45.506Z,1682.36
2023-05-01T07:58:45.623Z,1687.66
2023-05-01T07:59:45.499Z,1699.43
2023-05-01T08:00:45.475Z,1707.01
2023-05-01T08:01:45.447Z,1720.15
2023-05-01T08:02:45.534Z,1732.39
2023-05-01T08:03:46.530Z,1755.07
2023-05-01T08:04:45.467Z,1764.32
2023-05-01T08:05:45.381Z,1779.55
2023-05-01T08:06:45.439Z,1768.98
2023-05-01T08:07:45.378Z,1796.25
2023-05-01T08:08:45.363Z,1786.67
2023-05-01T08:09:45.359Z,1824.37
2023-05-01T08:10:45.315Z,1826.86
2023-05-01T08:11:45.770Z,1870.20
2023-05-01T08:12:45.325Z,1884.67
2023-05-01T08:13:45.322Z,1915.65
2023-05-01T08:14:45.277Z,1904.76
2023-05-01T08:15:45.312Z,1926.67
2023-05-01T08:16:45.919Z,1944.85
2023-05-01T08:17:45.281Z,1970.59
2023-05-01T08:18:45.233Z,1953.35
2023-05-01T08:19:45.208Z,1964.81
2023-05-01T08:20:45.203Z,1970.59
2023-05-01T08:21:45.190Z,1992.56
2023-05-01T08:22:45.250Z,2007.49
2023-05-01T08:23:45.478Z,2010.50
2023-05-01T08:24:45.185Z,2042.68
2023-05-01T08:25:45.120Z,2048.93
2023-05-01T08:26:45.117Z,2053.64
2023-05-01T08:27:45.122Z,2079.13
2023-05-01T08:28:45.103Z,2098.67
2023-05-01T08:29:45.184Z,2101.96
2023-05-01T08:30:45.106Z,2138.87
2023-05-01T08:31:45.147Z,2171.80
2023-05-01T08:32:45.090Z,2216.71
2023-05-01T08:33:45.045Z,2261.60
2023-05-01T08:34:45.032Z,2310.34
2023-05-01T08:35:45.037Z,2344.71
2023-05-01T08:36:45.063Z,2384.34
2023-05-01T08:37:45.165Z,2434.15
2023-05-01T08:38:45.011Z,2463.24
2023-05-01T08:39:45.859Z,2474.61
2023-05-01T08:40:45.037Z,2525.92
2023-05-01T08:41:44.989Z,2564.59
2023-05-01T08:42:44.970Z,2589.37
2023-05-01T08:43:44.926Z,2635.20
2023-05-01T08:44:44.964Z,2661.37
2023-05-01T08:45:44.915Z,2682.68
2023-05-01T08:46:44.892Z,2690.76
2023-05-01T08:47:44.901Z,2680.00
2023-05-01T08:48:44.920Z,2709.81
2023-05-01T08:49:44.824Z,2709.81
2023-05-01T08:50:44.846Z,2737.49
2023-05-01T08:51:44.790Z,2797.49
2023-05-01T08:52:44.811Z,2788.76
2023-05-01T08:53:44.890Z,2866.31
2023-05-01T08:54:44.821Z,2916.21
2023-05-01T08:55:44.753Z,2894.17
2023-05-01T08:56:44.749Z,2925.76
2023-05-01T08:57:44.851Z,2941.82
2023-05-01T08:58:44.706Z,2938.60
2023-05-01T08:59:44.745Z,2932.17
2023-05-01T09:00:45.493Z,2938.60
2023-05-01T09:01:47.437Z,2958.06
2023-05-01T09:02:44.701Z,2997.76
2023-05-01T09:03:44.711Z,3024.83
2023-05-01T09:04:44.620Z,3045.45
2023-05-01T09:05:44.614Z,3073.39
2023-05-01T09:06:44.667Z,3143.70
2023-05-01T09:07:44.639Z,3188.58
2023-05-01T09:08:44.572Z,3177.24
2023-05-01T09:09:44.693Z,3162.24
2023-05-01T09:10:44.532Z,3173.48
2023-05-01T09:11:44.574Z,3201.91
2023-05-01T09:12:44.508Z,3196.18
2023-05-01T09:13:44.487Z,3209.58
2023-05-01T09:14:44.507Z,3160.38
2023-05-01T09:15:44.523Z,3151.09
2023-05-01T09:16:44.578Z,3177.24
2023-05-01T09:17:44.504Z,3196.18
2023-05-01T09:18:44.438Z,3209.58
2023-05-01T09:19:44.452Z,3211.50
2023-05-01T09:20:44.431Z,3244.55
2023-05-01T09:21:44.479Z,3266.30
2023-05-01T09:22:44.468Z,3221.15
2023-05-01T09:23:44.428Z,3242.59
2023-05-01T09:24:44.560Z,3254.40
2023-05-01T09:25:44.418Z,3302.53
2023-05-01T09:26:44.449Z,3352.09
2023-05-01T09:27:44.489Z,3318.89
2023-05-01T09:28:44.341Z,3341.65
2023-05-01T09:29:44.413Z,3286.33
2023-05-01T09:30:44.302Z,3341.65
2023-05-01T09:31:44.316Z,3339.56
2023-05-01T09:32:44.446Z,3333.33
2023-05-01T09:33:44.302Z,3362.61
2023-05-01T09:34:44.283Z,3333.33
2023-05-01T09:35:44.266Z,3329.19
2023-05-01T09:36:44.420Z,3331.26
2023-05-01T09:37:44.869Z,3362.61
2023-05-01T09:38:44.200Z,3345.82
2023-05-01T09:39:44.221Z,3341.65
2023-05-01T09:40:44.686Z,3392.41
2023-05-01T09:41:44.137Z,3388.12
2023-05-01T09:42:44.614Z,3398.86
2023-05-01T09:43:44.229Z,3390.26
2023-05-01T09:44:44.280Z,3435.90
2023-05-01T09:45:44.171Z,3440.31
2023-05-01T09:46:44.219Z,3469.25
2023-05-01T09:47:44.205Z,3478.26
2023-05-01T09:48:44.121Z,3467.01
2023-05-01T09:49:44.273Z,3535.62
2023-05-01T09:50:44.072Z,3503.27
2023-05-01T09:51:44.106Z,3505.56
2023-05-01T09:52:44.039Z,3498.69
2023-05-01T09:53:44.034Z,3494.13
2023-05-01T09:54:44.903Z,3487.31
2023-05-01T09:55:44.239Z,3507.85
2023-05-01T09:56:44.164Z,3530.96
2023-05-01T09:57:44.002Z,3549.67
2023-05-01T09:58:44.065Z,3547.32
2023-05-01T09:59:43.983Z,3530.96
2023-05-01T10:00:43.944Z,3582.89
2023-05-01T10:01:44.003Z,3587.68
2023-05-01T10:02:44.159Z,3587.68
2023-05-01T10:03:44.019Z,3611.86
2023-05-01T10:04:43.951Z,3628.98
2023-05-01T10:05:43.886Z,3646.26
2023-05-01T10:06:44.051Z,3666.21
2023-05-01T10:07:43.942Z,3696.55
2023-05-01T10:08:44.151Z,3694.00
2023-05-01T10:09:44.101Z,3686.38
2023-05-01T10:10:44.040Z,3694.00
2023-05-01T10:11:44.236Z,3668.72
2023-05-01T10:12:43.846Z,3696.55
2023-05-01T10:13:44.354Z,3727.40
2023-05-01T10:14:43.997Z,3696.55
2023-05-01T10:15:43.850Z,3771.99
2023-05-01T10:16:43.846Z,3761.40
2023-05-01T10:17:43.817Z,3753.50
2023-05-01T10:18:43.720Z,3761.40
2023-05-01T10:19:43.833Z,3737.80
2023-05-01T10:20:43.730Z,3735.19
2023-05-01T10:21:43.730Z,3774.65
2023-05-01T10:22:43.899Z,3790.66
2023-05-01T10:23:43.696Z,3817.66
2023-05-01T10:24:43.795Z,3823.11
2023-05-01T10:25:43.810Z,3850.57
2023-05-01T10:26:43.646Z,3856.11
2023-05-01T10:27:43.612Z,3923.86
2023-05-01T10:28:43.566Z,3926.74
2023-05-01T10:29:43.734Z,3994.04
2023-05-01T10:30:44.440Z,3997.02
2023-05-01T10:31:43.756Z,3944.08
2023-05-01T10:32:44.295Z,3926.74
2023-05-01T10:33:43.572Z,3973.31
2023-05-01T10:34:43.442Z,3991.06
2023-05-01T10:35:43.499Z,4011.98
2023-05-01T10:36:43.446Z,4039.19
2023-05-01T10:37:43.502Z,4094.73
2023-05-01T10:38:43.433Z,4088.48
2023-05-01T10:39:43.413Z,4066.77
2023-05-01T10:40:43.545Z,4091.60
2023-05-01T10:41:43.445Z,4002.99
2023-05-01T10:42:43.439Z,4039.19
2023-05-01T10:43:43.598Z,4088.48
2023-05-01T10:44:43.445Z,4113.58
2023-05-01T10:45:43.364Z,4145.40
2023-05-01T10:46:43.354Z,4107.28
2023-05-01T10:47:43.353Z,4094.73
2023-05-01T10:48:43.287Z,4135.80
2023-05-01T10:49:43.304Z,4164.72
2023-05-01T10:50:43.257Z,4171.21
2023-05-01T10:51:43.250Z,4197.34
2023-05-01T10:52:43.239Z,4223.80
2023-05-01T10:53:43.213Z,4174.46
2023-05-01T10:54:43.212Z,4210.53
2023-05-01T10:55:43.327Z,4288.00
2023-05-01T10:56:43.330Z,4361.27
2023-05-01T10:57:43.220Z,4393.44
2023-05-01T10:58:43.290Z,4379.08
2023-05-01T10:59:43.298Z,4429.75
2023-05-01T11:00:43.138Z,4404.27
2023-05-01T11:01:43.254Z,4400.66
2023-05-01T11:02:43.116Z,4415.16
2023-05-01T11:03:43.110Z,4411.52
2023-05-01T11:04:43.141Z,4393.44
2023-05-01T11:05:43.295Z,4364.82
2023-05-01T11:06:43.627Z,4364.82
2023-05-01T11:07:43.124Z,4361.27
2023-05-01T11:08:44.090Z,4379.08
2023-05-01T11:09:43.121Z,4375.51
2023-05-01T11:10:43.060Z,4357.72
2023-05-01T11:11:42.976Z,4291.43
2023-05-01T11:12:43.008Z,4247.23
2023-05-01T11:13:43.033Z,4223.80
2023-05-01T11:14:42.997Z,4210.53
2023-05-01T11:15:42.940Z,4116.74
2023-05-01T11:16:43.059Z,4048.34
2023-05-01T11:17:43.257Z,4057.53
2023-05-01T11:18:42.962Z,4135.80
2023-05-01T11:19:42.882Z,4257.35
2023-05-01T11:20:42.948Z,4308.68
2023-05-01T11:21:42.856Z,4354.18
2023-05-01T11:22:42.895Z,4448.13
2023-05-01T11:23:42.823Z,4466.67
2023-05-01T11:24:42.839Z,4474.12
2023-05-01T11:25:42.823Z,4492.88
2023-05-01T11:26:42.849Z,4550.08
2023-05-01T11:27:42.838Z,4565.59
2023-05-01T11:28:42.834Z,4616.71
2023-05-01T11:29:42.775Z,4632.67
2023-05-01T11:30:42.813Z,4581.20
2023-05-01T11:31:42.780Z,4589.04
2023-05-01T11:32:42.765Z,4604.81
2023-05-01T11:33:42.717Z,4600.86
2023-05-01T11:34:42.724Z,4581.20
2023-05-01T11:35:42.700Z,4534.69
2023-05-01T11:36:42.762Z,4612.74
2023-05-01T11:37:43.743Z,4632.67
2023-05-01T11:38:42.689Z,4673.06
2023-05-01T11:39:42.655Z,4612.74
2023-05-01T11:40:42.624Z,4573.38
2023-05-01T11:41:42.701Z,4644.71
2023-05-01T11:42:42.628Z,4648.74
2023-05-01T11:43:42.604Z,4616.71
2023-05-01T11:44:42.603Z,4652.78
2023-05-01T11:45:42.582Z,4652.78
2023-05-01T11:46:42.565Z,4620.69
2023-05-01T11:47:42.617Z,4624.68
2023-05-01T11:48:42.528Z,4668.99
2023-05-01T11:49:42.511Z,4668.99
2023-05-01T11:50:42.513Z,4689.41
2023-05-01T11:51:42.504Z,4660.87
2023-05-01T11:52:42.502Z,4632.67
2023-05-01T11:53:42.468Z,4668.99
2023-05-01T11:54:42.450Z,4673.06
2023-05-01T11:55:42.432Z,4656.82
2023-05-01T11:56:42.432Z,4600.86
2023-05-01T11:57:42.428Z,4612.74
2023-05-01T11:58:42.428Z,4589.04
2023-05-01T11:59:42.383Z,4648.74
2023-05-01T12:00:42.397Z,4689.41
2023-05-01T12:01:42.396Z,4701.75
2023-05-01T12:02:42.472Z,4751.77
2023-05-01T12:03:42.560Z,4730.80
2023-05-01T12:04:42.417Z,4689.41
2023-05-01T12:05:42.358Z,4652.78
2023-05-01T12:06:42.369Z,4714.16
2023-05-01T12:07:42.323Z,4604.81
2023-05-01T12:08:42.336Z,4519.39
2023-05-01T12:09:42.400Z,4515.59
2023-05-01T12:10:42.280Z,4523.21
2023-05-01T12:11:42.226Z,4515.59
2023-05-01T12:12:44.020Z,4523.21
2023-05-01T12:13:42.398Z,4530.85
2023-05-01T12:14:42.237Z,4496.64
2023-05-01T12:15:42.255Z,4489.11
2023-05-01T12:16:42.260Z,4504.20
2023-05-01T12:17:42.174Z,4496.64
2023-05-01T12:18:42.167Z,4519.39
2023-05-01T12:19:42.190Z,4530.85
2023-05-01T12:20:42.211Z,4523.21
2023-05-01T12:21:42.139Z,4620.69
2023-05-01T12:22:42.307Z,4616.71
2023-05-01T12:23:42.095Z,4644.71
2023-05-01T12:24:42.283Z,4664.93
2023-05-01T12:25:42.095Z,4705.88
2023-05-01T12:26:42.043Z,4726.63
2023-05-01T12:27:42.027Z,4718.31